sensor_id;sensor_type;location;lat;lon;timestamp;P1;durP1;ratioP1;P2;durP2;ratioP2
54745;SDS011;40640;48.130;11.356;2023-07-29T00:02:59;16.77;;;4.07;;
54745;SDS011;40640;48.130;11.356;2023-07-29T00:07:02;6.85;;;3.22;;
54745;SDS011;40640;48.130;11.356;2023-07-29T00:11:05;5.57;;;3.80;;
54745;SDS011;40640;48.130;11.356;2023-07-29T00:15:08;6.25;;;3.67;;
54745;SDS011;40640;48.130;11.356;2023-07-29T00:19:13;5.38;;;3.08;;
54745;SDS011;40640;48.130;11.356;2023-07-29T00:23:16;4.78;;;3.05;;
54745;SDS011;40640;48.130;11.356;2023-07-29T00:27:20;7.13;;;3.22;;
54745;SDS011;40640;48.130;11.356;2023-07-29T00:31:23;6.10;;;3.10;;
54745;SDS011;40640;48.130;11.356;2023-07-29T00:35:28;5.63;;;2.83;;
54745;SDS011;40640;48.130;11.356;2023-07-29T00:39:31;5.72;;;3.13;;
54745;SDS011;40640;48.130;11.356;2023-07-29T00:43:33;6.97;;;2.83;;
54745;SDS011;40640;48.130;11.356;2023-07-29T00:47:36;8.32;;;2.70;;
54745;SDS011;40640;48.130;11.356;2023-07-29T00:51:42;4.07;;;2.65;;
54745;SDS011;40640;48.130;11.356;2023-07-29T00:55:45;8.68;;;3.25;;
54745;SDS011;40640;48.130;11.356;2023-07-29T00:59:49;5.47;;;2.63;;
54745;SDS011;40640;48.130;11.356;2023-07-29T01:03:52;5.22;;;3.20;;
54745;SDS011;40640;48.130;11.356;2023-07-29T01:07:59;5.88;;;2.85;;
54745;SDS011;40640;48.130;11.356;2023-07-29T01:12:22;6.28;;;2.63;;
54745;SDS011;40640;48.130;11.356;2023-07-29T01:16:30;7.10;;;3.25;;
54745;SDS011;40640;48.130;11.356;2023-07-29T01:20:37;7.85;;;3.25;;
54745;SDS011;40640;48.130;11.356;2023-07-29T01:24:43;6.07;;;3.03;;
54745;SDS011;40640;48.130;11.356;2023-07-29T01:28:46;4.55;;;2.63;;
54745;SDS011;40640;48.130;11.356;2023-07-29T01:32:51;6.72;;;3.17;;
54745;SDS011;40640;48.130;11.356;2023-07-29T01:36:57;7.50;;;3.05;;
54745;SDS011;40640;48.130;11.356;2023-07-29T01:41:06;6.55;;;2.83;;
54745;SDS011;40640;48.130;11.356;2023-07-29T01:45:10;6.32;;;2.78;;
54745;SDS011;40640;48.130;11.356;2023-07-29T01:49:13;7.38;;;2.75;;
54745;SDS011;40640;48.130;11.356;2023-07-29T01:53:16;6.25;;;2.95;;
54745;SDS011;40640;48.130;11.356;2023-07-29T01:57:20;6.80;;;3.22;;
54745;SDS011;40640;48.130;11.356;2023-07-29T02:01:23;6.15;;;2.95;;
54745;SDS011;40640;48.130;11.356;2023-07-29T02:05:26;5.47;;;2.88;;
54745;SDS011;40640;48.130;11.356;2023-07-29T02:09:29;4.70;;;2.72;;
54745;SDS011;40640;48.130;11.356;2023-07-29T02:13:34;3.83;;;2.90;;
54745;SDS011;40640;48.130;11.356;2023-07-29T02:17:37;7.22;;;2.80;;
54745;SDS011;40640;48.130;11.356;2023-07-29T02:21:40;3.95;;;3.03;;
54745;SDS011;40640;48.130;11.356;2023-07-29T02:25:43;6.57;;;2.92;;
54745;SDS011;40640;48.130;11.356;2023-07-29T02:29:48;6.95;;;2.80;;
54745;SDS011;40640;48.130;11.356;2023-07-29T02:33:51;6.35;;;3.13;;
54745;SDS011;40640;48.130;11.356;2023-07-29T02:37:54;6.30;;;3.03;;
54745;SDS011;40640;48.130;11.356;2023-07-29T02:41:57;6.15;;;2.83;;
54745;SDS011;40640;48.130;11.356;2023-07-29T02:46:02;7.55;;;2.83;;
54745;SDS011;40640;48.130;11.356;2023-07-29T02:50:05;4.32;;;3.10;;
54745;SDS011;40640;48.130;11.356;2023-07-29T02:54:08;8.48;;;3.28;;
54745;SDS011;40640;48.130;11.356;2023-07-29T02:58:11;6.20;;;3.40;;
54745;SDS011;40640;48.130;11.356;2023-07-29T03:02:16;4.80;;;2.75;;
54745;SDS011;40640;48.130;11.356;2023-07-29T03:06:19;5.22;;;3.30;;
54745;SDS011;40640;48.130;11.356;2023-07-29T03:10:22;8.07;;;3.80;;
54745;SDS011;40640;48.130;11.356;2023-07-29T03:14:25;10.20;;;3.10;;
54745;SDS011;40640;48.130;11.356;2023-07-29T03:18:29;6.55;;;2.80;;
54745;SDS011;40640;48.130;11.356;2023-07-29T03:22:32;8.73;;;3.50;;
54745;SDS011;40640;48.130;11.356;2023-07-29T03:26:35;8.00;;;3.03;;
54745;SDS011;40640;48.130;11.356;2023-07-29T03:30:38;3.92;;;2.90;;
54745;SDS011;40640;48.130;11.356;2023-07-29T03:34:43;8.40;;;3.03;;
54745;SDS011;40640;48.130;11.356;2023-07-29T03:38:46;2.97;;;2.33;;
54745;SDS011;40640;48.130;11.356;2023-07-29T03:42:49;8.57;;;2.60;;
54745;SDS011;40640;48.130;11.356;2023-07-29T03:46:52;3.42;;;2.53;;
54745;SDS011;40640;48.130;11.356;2023-07-29T03:50:56;8.13;;;3.03;;
54745;SDS011;40640;48.130;11.356;2023-07-29T03:54:59;6.82;;;2.65;;
54745;SDS011;40640;48.130;11.356;2023-07-29T03:59:02;4.43;;;2.60;;
54745;SDS011;40640;48.130;11.356;2023-07-29T04:03:05;5.07;;;2.72;;
54745;SDS011;40640;48.130;11.356;2023-07-29T04:07:10;6.25;;;2.65;;
54745;SDS011;40640;48.130;11.356;2023-07-29T04:11:13;5.72;;;2.78;;
54745;SDS011;40640;48.130;11.356;2023-07-29T04:15:16;4.60;;;2.67;;
54745;SDS011;40640;48.130;11.356;2023-07-29T04:19:19;3.53;;;2.78;;
54745;SDS011;40640;48.130;11.356;2023-07-29T04:23:23;3.20;;;2.70;;
54745;SDS011;40640;48.130;11.356;2023-07-29T04:27:26;7.38;;;2.90;;
54745;SDS011;40640;48.130;11.356;2023-07-29T04:31:29;3.90;;;2.90;;
54745;SDS011;40640;48.130;11.356;2023-07-29T04:35:32;8.50;;;3.30;;
54745;SDS011;40640;48.130;11.356;2023-07-29T04:39:36;4.07;;;3.08;;
54745;SDS011;40640;48.130;11.356;2023-07-29T04:43:39;5.72;;;3.13;;
54745;SDS011;40640;48.130;11.356;2023-07-29T04:47:42;4.38;;;3.22;;
54745;SDS011;40640;48.130;11.356;2023-07-29T04:51:45;3.92;;;3.05;;
54745;SDS011;40640;48.130;11.356;2023-07-29T04:55:49;6.47;;;2.80;;
54745;SDS011;40640;48.130;11.356;2023-07-29T04:59:52;4.63;;;2.90;;
54745;SDS011;40640;48.130;11.356;2023-07-29T05:03:55;5.32;;;3.00;;
54745;SDS011;40640;48.130;11.356;2023-07-29T05:07:58;6.90;;;2.88;;
54745;SDS011;40640;48.130;11.356;2023-07-29T05:12:02;6.32;;;2.67;;
54745;SDS011;40640;48.130;11.356;2023-07-29T05:16:06;3.75;;;2.58;;
54745;SDS011;40640;48.130;11.356;2023-07-29T05:20:09;3.15;;;2.35;;
54745;SDS011;40640;48.130;11.356;2023-07-29T05:24:12;3.53;;;2.70;;
54745;SDS011;40640;48.130;11.356;2023-07-29T05:28:17;7.82;;;2.22;;
54745;SDS011;40640;48.130;11.356;2023-07-29T05:32:20;4.82;;;2.75;;
54745;SDS011;40640;48.130;11.356;2023-07-29T05:36:23;8.68;;;3.05;;
54745;SDS011;40640;48.130;11.356;2023-07-29T05:40:25;3.35;;;2.30;;
54745;SDS011;40640;48.130;11.356;2023-07-29T05:44:32;7.70;;;2.63;;
54745;SDS011;40640;48.130;11.356;2023-07-29T05:48:34;4.40;;;2.45;;
54745;SDS011;40640;48.130;11.356;2023-07-29T05:52:37;7.43;;;2.17;;
54745;SDS011;40640;48.130;11.356;2023-07-29T05:56:40;6.80;;;2.30;;
54745;SDS011;40640;48.130;11.356;2023-07-29T06:00:45;5.75;;;2.60;;
54745;SDS011;40640;48.130;11.356;2023-07-29T06:04:48;7.85;;;2.40;;
54745;SDS011;40640;48.130;11.356;2023-07-29T06:08:50;4.25;;;2.15;;
54745;SDS011;40640;48.130;11.356;2023-07-29T06:12:53;3.85;;;2.38;;
54745;SDS011;40640;48.130;11.356;2023-07-29T06:16:58;3.13;;;2.35;;
54745;SDS011;40640;48.130;11.356;2023-07-29T06:21:01;6.60;;;2.45;;
54745;SDS011;40640;48.130;11.356;2023-07-29T06:25:08;2.47;;;1.90;;
54745;SDS011;40640;48.130;11.356;2023-07-29T06:29:12;3.63;;;2.42;;
54745;SDS011;40640;48.130;11.356;2023-07-29T06:33:16;3.42;;;2.25;;
54745;SDS011;40640;48.130;11.356;2023-07-29T06:37:19;3.58;;;2.53;;
54745;SDS011;40640;48.130;11.356;2023-07-29T06:41:25;4.32;;;2.72;;
54745;SDS011;40640;48.130;11.356;2023-07-29T06:45:28;8.20;;;3.58;;
54745;SDS011;40640;48.130;11.356;2023-07-29T06:49:32;8.70;;;3.45;;
54745;SDS011;40640;48.130;11.356;2023-07-29T06:53:35;10.35;;;4.30;;
54745;SDS011;40640;48.130;11.356;2023-07-29T06:57:39;9.15;;;5.18;;
54745;SDS011;40640;48.130;11.356;2023-07-29T07:01:42;5.03;;;3.45;;
54745;SDS011;40640;48.130;11.356;2023-07-29T07:05:46;7.63;;;3.40;;
54745;SDS011;40640;48.130;11.356;2023-07-29T07:09:49;4.47;;;3.28;;
54745;SDS011;40640;48.130;11.356;2023-07-29T07:13:52;7.50;;;3.42;;
54745;SDS011;40640;48.130;11.356;2023-07-29T07:17:55;7.13;;;3.92;;
54745;SDS011;40640;48.130;11.356;2023-07-29T07:21:59;7.38;;;3.92;;
54745;SDS011;40640;48.130;11.356;2023-07-29T07:26:02;7.25;;;3.90;;
54745;SDS011;40640;48.130;11.356;2023-07-29T07:30:05;7.97;;;4.03;;
54745;SDS011;40640;48.130;11.356;2023-07-29T07:34:09;10.95;;;3.92;;
54745;SDS011;40640;48.130;11.356;2023-07-29T07:38:13;8.63;;;3.53;;
54745;SDS011;40640;48.130;11.356;2023-07-29T07:42:16;8.35;;;3.25;;
54745;SDS011;40640;48.130;11.356;2023-07-29T07:46:19;4.90;;;3.33;;
54745;SDS011;40640;48.130;11.356;2023-07-29T07:50:22;4.53;;;3.25;;
54745;SDS011;40640;48.130;11.356;2023-07-29T07:54:27;2.80;;;2.45;;
54745;SDS011;40640;48.130;11.356;2023-07-29T07:58:29;4.47;;;3.05;;
54745;SDS011;40640;48.130;11.356;2023-07-29T08:02:32;8.75;;;3.05;;
54745;SDS011;40640;48.130;11.356;2023-07-29T08:06:35;4.00;;;3.05;;
54745;SDS011;40640;48.130;11.356;2023-07-29T08:10:40;5.55;;;2.55;;
54745;SDS011;40640;48.130;11.356;2023-07-29T08:14:43;4.80;;;2.92;;
54745;SDS011;40640;48.130;11.356;2023-07-29T08:18:46;8.50;;;2.97;;
54745;SDS011;40640;48.130;11.356;2023-07-29T08:22:48;3.78;;;3.38;;
54745;SDS011;40640;48.130;11.356;2023-07-29T08:26:53;3.58;;;2.85;;
54745;SDS011;40640;48.130;11.356;2023-07-29T08:30:56;5.13;;;3.25;;
54745;SDS011;40640;48.130;11.356;2023-07-29T08:34:58;4.22;;;2.85;;
54745;SDS011;40640;48.130;11.356;2023-07-29T08:39:02;7.57;;;3.05;;
54745;SDS011;40640;48.130;11.356;2023-07-29T08:43:06;4.68;;;2.88;;
54745;SDS011;40640;48.130;11.356;2023-07-29T08:47:09;5.85;;;3.00;;
54745;SDS011;40640;48.130;11.356;2023-07-29T08:51:14;3.83;;;2.83;;
54745;SDS011;40640;48.130;11.356;2023-07-29T08:55:19;5.35;;;3.28;;
54745;SDS011;40640;48.130;11.356;2023-07-29T08:59:24;5.82;;;2.80;;
54745;SDS011;40640;48.130;11.356;2023-07-29T09:03:28;3.08;;;2.53;;
54745;SDS011;40640;48.130;11.356;2023-07-29T09:07:32;4.20;;;2.95;;
54745;SDS011;40640;48.130;11.356;2023-07-29T09:11:36;4.30;;;2.72;;
54745;SDS011;40640;48.130;11.356;2023-07-29T09:15:40;3.08;;;2.75;;
54745;SDS011;40640;48.130;11.356;2023-07-29T09:19:47;3.63;;;2.25;;
54745;SDS011;40640;48.130;11.356;2023-07-29T09:23:50;3.55;;;3.20;;
54745;SDS011;40640;48.130;11.356;2023-07-29T09:27:55;3.33;;;2.75;;
54745;SDS011;40640;48.130;11.356;2023-07-29T09:32:21;4.57;;;2.50;;
54745;SDS011;40640;48.130;11.356;2023-07-29T09:36:25;4.60;;;3.00;;
54745;SDS011;40640;48.130;11.356;2023-07-29T09:40:34;4.63;;;3.17;;
54745;SDS011;40640;48.130;11.356;2023-07-29T09:44:38;4.35;;;3.28;;
54745;SDS011;40640;48.130;11.356;2023-07-29T09:48:42;3.95;;;3.38;;
54745;SDS011;40640;48.130;11.356;2023-07-29T09:52:48;5.10;;;3.00;;
54745;SDS011;40640;48.130;11.356;2023-07-29T09:56:53;2.90;;;2.60;;
54745;SDS011;40640;48.130;11.356;2023-07-29T10:00:56;3.65;;;2.70;;
54745;SDS011;40640;48.130;11.356;2023-07-29T10:05:01;3.30;;;2.83;;
54745;SDS011;40640;48.130;11.356;2023-07-29T10:13:08;3.70;;;2.65;;
54745;SDS011;40640;48.130;11.356;2023-07-29T10:17:12;3.45;;;2.83;;
54745;SDS011;40640;48.130;11.356;2023-07-29T10:21:19;5.55;;;2.70;;
54745;SDS011;40640;48.130;11.356;2023-07-29T10:25:24;4.60;;;3.15;;
54745;SDS011;40640;48.130;11.356;2023-07-29T10:29:32;3.08;;;2.70;;
54745;SDS011;40640;48.130;11.356;2023-07-29T10:33:41;6.30;;;3.20;;
54745;SDS011;40640;48.130;11.356;2023-07-29T10:37:46;4.22;;;3.15;;
54745;SDS011;40640;48.130;11.356;2023-07-29T10:41:56;4.25;;;2.47;;
54745;SDS011;40640;48.130;11.356;2023-07-29T10:46:14;4.13;;;2.70;;
54745;SDS011;40640;48.130;11.356;2023-07-29T10:50:18;2.97;;;2.60;;
54745;SDS011;40640;48.130;11.356;2023-07-29T10:54:23;4.20;;;2.75;;
54745;SDS011;40640;48.130;11.356;2023-07-29T10:58:26;6.57;;;2.78;;
54745;SDS011;40640;48.130;11.356;2023-07-29T11:02:33;3.97;;;2.63;;
54745;SDS011;40640;48.130;11.356;2023-07-29T11:11:16;4.22;;;2.13;;
54745;SDS011;40640;48.130;11.356;2023-07-29T11:15:20;3.22;;;2.20;;
54745;SDS011;40640;48.130;11.356;2023-07-29T11:19:24;3.05;;;2.10;;
54745;SDS011;40640;48.130;11.356;2023-07-29T11:23:30;1.90;;;1.67;;
54745;SDS011;40640;48.130;11.356;2023-07-29T11:27:35;2.10;;;1.90;;
54745;SDS011;40640;48.130;11.356;2023-07-29T11:31:39;2.43;;;1.80;;
54745;SDS011;40640;48.130;11.356;2023-07-29T11:35:42;1.55;;;1.45;;
54745;SDS011;40640;48.130;11.356;2023-07-29T11:39:46;2.80;;;1.85;;
54745;SDS011;40640;48.130;11.356;2023-07-29T11:43:50;4.25;;;2.08;;
54745;SDS011;40640;48.130;11.356;2023-07-29T11:47:53;2.35;;;2.10;;
54745;SDS011;40640;48.130;11.356;2023-07-29T11:55:59;4.90;;;2.40;;
54745;SDS011;40640;48.130;11.356;2023-07-29T12:00:03;3.47;;;2.53;;
54745;SDS011;40640;48.130;11.356;2023-07-29T12:04:10;3.33;;;2.42;;
54745;SDS011;40640;48.130;11.356;2023-07-29T12:08:13;3.78;;;2.50;;
54745;SDS011;40640;48.130;11.356;2023-07-29T12:12:17;3.10;;;2.80;;
54745;SDS011;40640;48.130;11.356;2023-07-29T12:16:21;2.53;;;2.33;;
54745;SDS011;40640;48.130;11.356;2023-07-29T12:20:24;4.13;;;2.25;;
54745;SDS011;40640;48.130;11.356;2023-07-29T12:24:29;3.10;;;2.80;;
54745;SDS011;40640;48.130;11.356;2023-07-29T12:28:32;2.75;;;2.25;;
54745;SDS011;40640;48.130;11.356;2023-07-29T12:32:43;2.67;;;2.37;;
54745;SDS011;40640;48.130;11.356;2023-07-29T12:36:48;4.60;;;3.65;;
54745;SDS011;40640;48.130;11.356;2023-07-29T12:40:51;4.03;;;3.17;;
54745;SDS011;40640;48.130;11.356;2023-07-29T12:44:54;3.90;;;3.17;;
54745;SDS011;40640;48.130;11.356;2023-07-29T12:48:58;6.25;;;3.85;;
54745;SDS011;40640;48.130;11.356;2023-07-29T12:53:01;3.83;;;3.38;;
54745;SDS011;40640;48.130;11.356;2023-07-29T12:57:04;7.70;;;3.38;;
54745;SDS011;40640;48.130;11.356;2023-07-29T13:01:08;11.38;;;4.43;;
54745;SDS011;40640;48.130;11.356;2023-07-29T13:05:15;5.57;;;3.40;;
54745;SDS011;40640;48.130;11.356;2023-07-29T13:09:18;9.85;;;4.05;;
54745;SDS011;40640;48.130;11.356;2023-07-29T13:13:21;5.15;;;3.70;;
54745;SDS011;40640;48.130;11.356;2023-07-29T13:17:24;10.65;;;3.83;;
54745;SDS011;40640;48.130;11.356;2023-07-29T13:21:29;9.15;;;3.42;;
54745;SDS011;40640;48.130;11.356;2023-07-29T13:25:32;7.18;;;3.63;;
54745;SDS011;40640;48.130;11.356;2023-07-29T13:29:35;7.07;;;3.50;;
54745;SDS011;40640;48.130;11.356;2023-07-29T13:33:38;6.32;;;4.55;;
54745;SDS011;40640;48.130;11.356;2023-07-29T13:37:42;4.57;;;3.25;;
54745;SDS011;40640;48.130;11.356;2023-07-29T13:41:45;8.93;;;3.72;;
54745;SDS011;40640;48.130;11.356;2023-07-29T13:45:48;4.50;;;2.97;;
54745;SDS011;40640;48.130;11.356;2023-07-29T13:49:51;4.82;;;3.75;;
54745;SDS011;40640;48.130;11.356;2023-07-29T13:53:55;3.83;;;3.15;;
54745;SDS011;40640;48.130;11.356;2023-07-29T13:57:58;3.75;;;3.00;;
54745;SDS011;40640;48.130;11.356;2023-07-29T14:02:01;8.80;;;3.42;;
54745;SDS011;40640;48.130;11.356;2023-07-29T14:06:04;5.43;;;2.70;;
54745;SDS011;40640;48.130;11.356;2023-07-29T14:10:09;3.25;;;2.47;;
54745;SDS011;40640;48.130;11.356;2023-07-29T14:14:11;6.43;;;2.95;;
54745;SDS011;40640;48.130;11.356;2023-07-29T14:18:14;5.10;;;2.47;;
54745;SDS011;40640;48.130;11.356;2023-07-29T14:22:17;5.38;;;3.00;;
54745;SDS011;40640;48.130;11.356;2023-07-29T14:26:21;3.55;;;2.83;;
54745;SDS011;40640;48.130;11.356;2023-07-29T14:30:24;5.03;;;3.03;;
54745;SDS011;40640;48.130;11.356;2023-07-29T14:34:27;5.18;;;3.15;;
54745;SDS011;40640;48.130;11.356;2023-07-29T14:38:30;7.20;;;3.08;;
54745;SDS011;40640;48.130;11.356;2023-07-29T14:42:34;5.95;;;3.40;;
54745;SDS011;40640;48.130;11.356;2023-07-29T14:46:37;6.70;;;2.97;;
54745;SDS011;40640;48.130;11.356;2023-07-29T14:50:41;6.05;;;3.10;;
54745;SDS011;40640;48.130;11.356;2023-07-29T14:54:44;10.60;;;5.22;;
54745;SDS011;40640;48.130;11.356;2023-07-29T14:58:49;5.13;;;3.47;;
54745;SDS011;40640;48.130;11.356;2023-07-29T15:02:52;6.20;;;3.08;;
54745;SDS011;40640;48.130;11.356;2023-07-29T15:06:55;5.13;;;3.10;;
54745;SDS011;40640;48.130;11.356;2023-07-29T15:10:59;3.97;;;2.80;;
54745;SDS011;40640;48.130;11.356;2023-07-29T15:15:03;4.28;;;3.38;;
54745;SDS011;40640;48.130;11.356;2023-07-29T15:19:07;4.80;;;3.38;;
54745;SDS011;40640;48.130;11.356;2023-07-29T15:23:10;3.58;;;2.55;;
54745;SDS011;40640;48.130;11.356;2023-07-29T15:27:13;5.22;;;3.25;;
54745;SDS011;40640;48.130;11.356;2023-07-29T15:31:17;6.10;;;2.90;;
54745;SDS011;40640;48.130;11.356;2023-07-29T15:35:21;7.40;;;4.10;;
54745;SDS011;40640;48.130;11.356;2023-07-29T15:39:24;12.98;;;4.00;;
54745;SDS011;40640;48.130;11.356;2023-07-29T15:43:27;6.65;;;3.50;;
54745;SDS011;40640;48.130;11.356;2023-07-29T15:47:32;7.28;;;3.45;;
54745;SDS011;40640;48.130;11.356;2023-07-29T15:51:34;7.95;;;3.65;;
54745;SDS011;40640;48.130;11.356;2023-07-29T15:55:37;4.57;;;3.20;;
54745;SDS011;40640;48.130;11.356;2023-07-29T15:59:40;4.75;;;3.10;;
54745;SDS011;40640;48.130;11.356;2023-07-29T16:03:44;8.63;;;4.95;;
54745;SDS011;40640;48.130;11.356;2023-07-29T16:07:47;4.65;;;3.08;;
54745;SDS011;40640;48.130;11.356;2023-07-29T16:11:50;6.13;;;3.67;;
54745;SDS011;40640;48.130;11.356;2023-07-29T16:15:53;5.03;;;3.22;;
54745;SDS011;40640;48.130;11.356;2023-07-29T16:19:58;4.10;;;3.13;;
54745;SDS011;40640;48.130;11.356;2023-07-29T16:24:03;4.60;;;3.22;;
54745;SDS011;40640;48.130;11.356;2023-07-29T16:28:06;8.50;;;4.03;;
54745;SDS011;40640;48.130;11.356;2023-07-29T16:32:09;5.90;;;4.32;;
54745;SDS011;40640;48.130;11.356;2023-07-29T16:36:13;11.10;;;4.75;;
54745;SDS011;40640;48.130;11.356;2023-07-29T16:40:16;9.07;;;5.30;;
54745;SDS011;40640;48.130;11.356;2023-07-29T16:44:19;7.38;;;4.95;;
54745;SDS011;40640;48.130;11.356;2023-07-29T16:48:22;5.45;;;3.53;;
54745;SDS011;40640;48.130;11.356;2023-07-29T16:52:26;4.43;;;2.92;;
54745;SDS011;40640;48.130;11.356;2023-07-29T16:56:29;4.78;;;3.35;;
54745;SDS011;40640;48.130;11.356;2023-07-29T17:00:33;4.22;;;2.88;;
54745;SDS011;40640;48.130;11.356;2023-07-29T17:04:36;4.43;;;2.90;;
54745;SDS011;40640;48.130;11.356;2023-07-29T17:08:41;5.28;;;2.70;;
54745;SDS011;40640;48.130;11.356;2023-07-29T17:12:43;5.97;;;2.30;;
54745;SDS011;40640;48.130;11.356;2023-07-29T17:16:46;2.72;;;2.20;;
54745;SDS011;40640;48.130;11.356;2023-07-29T17:20:49;4.07;;;2.30;;
54745;SDS011;40640;48.130;11.356;2023-07-29T17:24:53;2.85;;;2.17;;
54745;SDS011;40640;48.130;11.356;2023-07-29T17:28:56;2.80;;;2.50;;
54745;SDS011;40640;48.130;11.356;2023-07-29T17:32:59;5.03;;;3.53;;
54745;SDS011;40640;48.130;11.356;2023-07-29T17:37:02;2.80;;;2.40;;
54745;SDS011;40640;48.130;11.356;2023-07-29T17:41:07;2.78;;;2.13;;
54745;SDS011;40640;48.130;11.356;2023-07-29T17:45:10;3.95;;;2.35;;
54745;SDS011;40640;48.130;11.356;2023-07-29T17:49:13;3.30;;;1.95;;
54745;SDS011;40640;48.130;11.356;2023-07-29T17:53:16;4.78;;;2.40;;
54745;SDS011;40640;48.130;11.356;2023-07-29T17:57:20;2.88;;;2.15;;
54745;SDS011;40640;48.130;11.356;2023-07-29T18:01:22;3.97;;;2.47;;
54745;SDS011;40640;48.130;11.356;2023-07-29T18:05:25;4.45;;;2.22;;
54745;SDS011;40640;48.130;11.356;2023-07-29T18:09:28;3.00;;;2.20;;
54745;SDS011;40640;48.130;11.356;2023-07-29T18:13:33;3.53;;;2.67;;
54745;SDS011;40640;48.130;11.356;2023-07-29T18:17:36;5.82;;;3.30;;
54745;SDS011;40640;48.130;11.356;2023-07-29T18:21:39;4.07;;;2.92;;
54745;SDS011;40640;48.130;11.356;2023-07-29T18:25:41;4.30;;;3.17;;
54745;SDS011;40640;48.130;11.356;2023-07-29T18:29:46;4.30;;;2.80;;
54745;SDS011;40640;48.130;11.356;2023-07-29T18:33:49;3.90;;;2.38;;
54745;SDS011;40640;48.130;11.356;2023-07-29T18:37:51;5.25;;;2.63;;
54745;SDS011;40640;48.130;11.356;2023-07-29T18:41:59;3.20;;;2.13;;
54745;SDS011;40640;48.130;11.356;2023-07-29T18:46:03;2.55;;;1.92;;
54745;SDS011;40640;48.130;11.356;2023-07-29T18:50:07;4.10;;;2.55;;
54745;SDS011;40640;48.130;11.356;2023-07-29T18:54:10;4.15;;;2.13;;
54745;SDS011;40640;48.130;11.356;2023-07-29T18:58:13;4.82;;;2.25;;
54745;SDS011;40640;48.130;11.356;2023-07-29T19:02:17;3.03;;;2.20;;
54745;SDS011;40640;48.130;11.356;2023-07-29T19:06:20;3.65;;;2.17;;
54745;SDS011;40640;48.130;11.356;2023-07-29T19:10:23;5.53;;;2.10;;
54745;SDS011;40640;48.130;11.356;2023-07-29T19:14:26;6.78;;;2.35;;
54745;SDS011;40640;48.130;11.356;2023-07-29T19:18:30;5.18;;;2.15;;
54745;SDS011;40640;48.130;11.356;2023-07-29T19:22:33;4.00;;;2.40;;
54745;SDS011;40640;48.130;11.356;2023-07-29T19:26:36;3.60;;;2.47;;
54745;SDS011;40640;48.130;11.356;2023-07-29T19:30:39;3.58;;;1.95;;
54745;SDS011;40640;48.130;11.356;2023-07-29T19:34:44;1.90;;;1.70;;
54745;SDS011;40640;48.130;11.356;2023-07-29T19:38:51;6.15;;;2.00;;
54745;SDS011;40640;48.130;11.356;2023-07-29T19:42:54;4.40;;;2.10;;
54745;SDS011;40640;48.130;11.356;2023-07-29T19:46:57;5.40;;;2.25;;
54745;SDS011;40640;48.130;11.356;2023-07-29T19:51:02;3.28;;;2.03;;
54745;SDS011;40640;48.130;11.356;2023-07-29T19:55:05;2.30;;;2.00;;
54745;SDS011;40640;48.130;11.356;2023-07-29T19:59:09;6.82;;;2.17;;
54745;SDS011;40640;48.130;11.356;2023-07-29T20:03:11;4.60;;;2.20;;
54745;SDS011;40640;48.130;11.356;2023-07-29T20:07:16;7.40;;;2.70;;
54745;SDS011;40640;48.130;11.356;2023-07-29T20:11:19;6.28;;;2.42;;
54745;SDS011;40640;48.130;11.356;2023-07-29T20:15:21;4.15;;;2.70;;
54745;SDS011;40640;48.130;11.356;2023-07-29T20:19:24;2.92;;;2.42;;
54745;SDS011;40640;48.130;11.356;2023-07-29T20:23:28;5.13;;;2.17;;
54745;SDS011;40640;48.130;11.356;2023-07-29T20:27:31;3.38;;;2.45;;
54745;SDS011;40640;48.130;11.356;2023-07-29T20:31:34;7.25;;;2.55;;
54745;SDS011;40640;48.130;11.356;2023-07-29T20:35:38;2.58;;;2.28;;
54745;SDS011;40640;48.130;11.356;2023-07-29T20:39:42;5.10;;;2.47;;
54745;SDS011;40640;48.130;11.356;2023-07-29T20:43:45;3.60;;;2.42;;
54745;SDS011;40640;48.130;11.356;2023-07-29T20:47:47;5.38;;;2.35;;
54745;SDS011;40640;48.130;11.356;2023-07-29T20:51:50;4.35;;;2.45;;
54745;SDS011;40640;48.130;11.356;2023-07-29T20:55:55;4.78;;;2.35;;
54745;SDS011;40640;48.130;11.356;2023-07-29T20:59:58;2.58;;;2.17;;
54745;SDS011;40640;48.130;11.356;2023-07-29T21:04:00;3.60;;;2.20;;
54745;SDS011;40640;48.130;11.356;2023-07-29T21:08:03;3.65;;;2.10;;
54745;SDS011;40640;48.130;11.356;2023-07-29T21:12:08;2.47;;;2.28;;
54745;SDS011;40640;48.130;11.356;2023-07-29T21:16:12;2.10;;;1.90;;
54745;SDS011;40640;48.130;11.356;2023-07-29T21:20:16;5.43;;;1.83;;
54745;SDS011;40640;48.130;11.356;2023-07-29T21:24:19;2.88;;;2.05;;
54745;SDS011;40640;48.130;11.356;2023-07-29T21:28:23;2.72;;;2.15;;
54745;SDS011;40640;48.130;11.356;2023-07-29T21:32:26;2.38;;;1.92;;
54745;SDS011;40640;48.130;11.356;2023-07-29T21:36:29;7.60;;;2.08;;
54745;SDS011;40640;48.130;11.356;2023-07-29T21:40:32;4.07;;;2.10;;
54745;SDS011;40640;48.130;11.356;2023-07-29T21:44:36;4.57;;;2.20;;
54745;SDS011;40640;48.130;11.356;2023-07-29T21:48:39;3.10;;;2.22;;
54745;SDS011;40640;48.130;11.356;2023-07-29T21:52:42;4.70;;;1.70;;
54745;SDS011;40640;48.130;11.356;2023-07-29T21:56:44;6.43;;;2.00;;
54745;SDS011;40640;48.130;11.356;2023-07-29T22:00:51;2.88;;;1.83;;
54745;SDS011;40640;48.130;11.356;2023-07-29T22:04:54;2.10;;;1.88;;
54745;SDS011;40640;48.130;11.356;2023-07-29T22:08:57;2.72;;;1.65;;
54745;SDS011;40640;48.130;11.356;2023-07-29T22:13:00;2.20;;;2.00;;
54745;SDS011;40640;48.130;11.356;2023-07-29T22:17:04;1.90;;;1.40;;
54745;SDS011;40640;48.130;11.356;2023-07-29T22:21:07;3.53;;;1.65;;
54745;SDS011;40640;48.130;11.356;2023-07-29T22:25:10;2.90;;;1.58;;
54745;SDS011;40640;48.130;11.356;2023-07-29T22:29:13;2.55;;;1.70;;
54745;SDS011;40640;48.130;11.356;2023-07-29T22:33:18;1.77;;;1.52;;
54745;SDS011;40640;48.130;11.356;2023-07-29T22:37:21;2.35;;;1.70;;
54745;SDS011;40640;48.130;11.356;2023-07-29T22:41:24;3.38;;;1.90;;
54745;SDS011;40640;48.130;11.356;2023-07-29T22:45:27;2.83;;;1.38;;
54745;SDS011;40640;48.130;11.356;2023-07-29T22:49:31;2.80;;;1.73;;
54745;SDS011;40640;48.130;11.356;2023-07-29T22:53:34;1.95;;;1.75;;
54745;SDS011;40640;48.130;11.356;2023-07-29T22:57:37;2.58;;;1.70;;
54745;SDS011;40640;48.130;11.356;2023-07-29T23:01:40;2.13;;;1.67;;
54745;SDS011;40640;48.130;11.356;2023-07-29T23:05:44;4.72;;;1.63;;
54745;SDS011;40640;48.130;11.356;2023-07-29T23:09:47;2.75;;;1.50;;
54745;SDS011;40640;48.130;11.356;2023-07-29T23:13:50;2.95;;;1.73;;
54745;SDS011;40640;48.130;11.356;2023-07-29T23:17:53;2.15;;;1.80;;
54745;SDS011;40640;48.130;11.356;2023-07-29T23:21:57;1.95;;;1.67;;
54745;SDS011;40640;48.130;11.356;2023-07-29T23:26:00;1.63;;;1.52;;
54745;SDS011;40640;48.130;11.356;2023-07-29T23:30:03;3.10;;;1.52;;
54745;SDS011;40640;48.130;11.356;2023-07-29T23:34:07;3.55;;;1.55;;
54745;SDS011;40640;48.130;11.356;2023-07-29T23:38:12;2.78;;;1.52;;
54745;SDS011;40640;48.130;11.356;2023-07-29T23:42:14;2.30;;;1.60;;
54745;SDS011;40640;48.130;11.356;2023-07-29T23:46:17;3.05;;;1.52;;
54745;SDS011;40640;48.130;11.356;2023-07-29T23:50:20;2.03;;;1.58;;
54745;SDS011;40640;48.130;11.356;2023-07-29T23:54:24;4.53;;;1.75;;
54745;SDS011;40640;48.130;11.356;2023-07-29T23:58:27;2.35;;;1.60;;
